Time;durP1;ratioP1;P1;durP2;ratioP2;P2;SDS_P1;SDS_P2;PMS_P1;PMS_P2;Temp;Humidity;BMP_temperature;BMP_pressure;BME280_temperature;BME280_humidity;BME280_pressure;Samples;Min_cycle;Max_cycle;Signal;HPM_P1;HPM_P2
2022/01/03 00:02:11;;;;;;;5.57;0.73;;;;;;;;;;5096082;28;20063;-90
2022/01/03 00:04:37;;;;;;;9.98;1.33;;;;;;;;;;5095168;28;20055;-90
2022/01/03 00:07:03;;;;;;;12.45;1.70;;;;;;;;;;5095912;28;20075;-91
2022/01/03 00:09:30;;;;;;;8.77;1.83;;;;;;;;;;5096109;28;20395;-92
2022/01/03 00:11:56;;;;;;;9.60;1.52;;;;;;;;;;5095734;28;20059;-93
2022/01/03 00:14:24;;;;;;;9.07;1.83;;;;;;;;;;5094860;28;20046;-91
2022/01/03 00:16:50;;;;;;;14.20;2.45;;;;;;;;;;5095834;28;20098;-92
2022/01/03 00:19:16;;;;;;;10.88;2.20;;;;;;;;;;5094648;28;20040;-91
2022/01/03 00:21:46;;;;;;;8.95;2.15;;;;;;;;;;5095824;28;20048;-91
2022/01/03 00:24:13;;;;;;;15.43;2.47;;;;;;;;;;5095585;28;20056;-90
2022/01/03 00:26:40;;;;;;;10.63;2.05;;;;;;;;;;5094420;28;20039;-93
2022/01/03 00:29:09;;;;;;;12.02;2.63;;;;;;;;;;5095616;28;20040;-92
2022/01/03 00:31:36;;;;;;;8.63;2.25;;;;;;;;;;5094448;28;20044;-91
2022/01/03 00:34:04;;;;;;;12.18;2.00;;;;;;;;;;5095825;28;20395;-93
2022/01/03 00:36:30;;;;;;;10.18;2.60;;;;;;;;;;5095786;28;20540;-91
2022/01/03 00:38:57;;;;;;;16.58;2.42;;;;;;;;;;5094799;28;20399;-93
2022/01/03 00:41:23;;;;;;;10.15;2.00;;;;;;;;;;5094371;28;20040;-93
2022/01/03 00:43:51;;;;;;;15.60;2.25;;;;;;;;;;5094417;28;20437;-91
2022/01/03 00:46:18;;;;;;;16.08;2.85;;;;;;;;;;5095096;28;20055;-94
2022/01/03 00:48:44;;;;;;;13.98;1.90;;;;;;;;;;5094058;28;20044;-90
2022/01/03 00:51:13;;;;;;;11.27;2.10;;;;;;;;;;5095067;28;20503;-92
2022/01/03 00:53:39;;;;;;;12.98;2.78;;;;;;;;;;5094228;28;20502;-92
2022/01/03 00:56:13;;;;;;;10.65;2.30;;;;;;;;;;5094860;28;20036;-92
2022/01/03 00:58:46;;;;;;;13.95;2.35;;;;;;;;;;5093989;28;20376;-91
2022/01/03 01:01:12;;;;;;;11.50;2.33;;;;;;;;;;5093686;28;20052;-92
2022/01/03 01:03:39;;;;;;;14.43;2.40;;;;;;;;;;5095139;28;20040;-93
2022/01/03 01:06:06;;;;;;;18.40;3.15;;;;;;;;;;5094979;28;20036;-92
2022/01/03 01:08:33;;;;;;;12.88;2.65;;;;;;;;;;5093806;28;20080;-91
2022/01/03 01:10:59;;;;;;;16.80;2.65;;;;;;;;;;5093766;28;20522;-92
2022/01/03 01:13:25;;;;;;;17.17;2.90;;;;;;;;;;5093341;28;20051;-92
2022/01/03 01:15:51;;;;;;;16.10;2.85;;;;;;;;;;5093899;28;20040;-93
2022/01/03 01:18:17;;;;;;;19.80;3.30;;;;;;;;;;5093460;28;20403;-93
2022/01/03 01:20:43;;;;;;;14.10;2.55;;;;;;;;;;5094843;28;20047;-92
2022/01/03 01:23:10;;;;;;;19.35;3.17;;;;;;;;;;5094147;28;20527;-92
2022/01/03 01:28:03;;;;;;;14.55;2.83;;;;;;;;;;5093169;28;20051;-93
2022/01/03 01:30:29;;;;;;;17.23;2.55;;;;;;;;;;5094688;28;20119;-93
2022/01/03 01:33:06;;;;;;;18.80;3.03;;;;;;;;;;5093103;28;20313;-93
2022/01/03 01:35:53;;;;;;;12.57;2.85;;;;;;;;;;5093216;28;20040;-92
2022/01/03 01:38:21;;;;;;;15.70;2.60;;;;;;;;;;5094139;28;20078;-93
2022/01/03 01:40:48;;;;;;;21.73;3.30;;;;;;;;;;5093525;28;20063;-93
2022/01/03 01:43:15;;;;;;;18.08;3.53;;;;;;;;;;5092689;28;20048;-92
2022/01/03 01:45:42;;;;;;;21.67;3.22;;;;;;;;;;5093213;28;20352;-93
2022/01/03 01:48:11;;;;;;;22.67;3.42;;;;;;;;;;5093940;28;20079;-92
2022/01/03 01:50:39;;;;;;;18.02;3.30;;;;;;;;;;5092990;28;20044;-93
2022/01/03 01:53:05;;;;;;;22.52;3.58;;;;;;;;;;5093736;28;20036;-93
2022/01/03 01:55:31;;;;;;;20.42;3.20;;;;;;;;;;5094674;28;20044;-92
2022/01/03 01:58:03;;;;;;;26.80;4.45;;;;;;;;;;5093768;28;20032;-93
2022/01/03 02:00:30;;;;;;;16.20;3.30;;;;;;;;;;5093147;28;20074;-93
2022/01/03 02:02:59;;;;;;;18.58;3.35;;;;;;;;;;5093737;28;20068;-94
2022/01/03 02:05:31;;;;;;;16.50;3.00;;;;;;;;;;5093758;28;20032;-93
2022/01/03 02:08:05;;;;;;;15.68;3.20;;;;;;;;;;5093887;28;20036;-93
2022/01/03 02:10:39;;;;;;;20.05;3.92;;;;;;;;;;5094129;28;20039;-94
2022/01/03 02:13:05;;;;;;;20.88;3.63;;;;;;;;;;5092225;28;20043;-91
2022/01/03 02:15:32;;;;;;;19.45;3.15;;;;;;;;;;5093378;28;20395;-91
2022/01/03 02:17:58;;;;;;;17.75;3.03;;;;;;;;;;5093202;28;20498;-93
2022/01/03 02:20:26;;;;;;;22.17;3.47;;;;;;;;;;5094290;28;20122;-93
2022/01/03 02:22:53;;;;;;;19.38;3.75;;;;;;;;;;5094126;28;20039;-92
2022/01/03 02:25:19;;;;;;;16.02;2.72;;;;;;;;;;5093835;28;20044;-93
2022/01/03 02:27:46;;;;;;;17.98;3.13;;;;;;;;;;5094251;28;20040;-93
2022/01/03 02:30:13;;;;;;;19.50;3.63;;;;;;;;;;5094975;28;20047;-92
2022/01/03 02:32:40;;;;;;;22.02;3.33;;;;;;;;;;5095136;28;20462;-94
2022/01/03 02:35:07;;;;;;;16.92;3.30;;;;;;;;;;5095659;28;20494;-92
2022/01/03 02:37:33;;;;;;;14.00;3.38;;;;;;;;;;5098004;28;20044;-92
2022/01/03 02:39:59;;;;;;;19.95;3.33;;;;;;;;;;5098424;28;20043;-91
2022/01/03 02:42:25;;;;;;;20.83;3.60;;;;;;;;;;5098903;28;20123;-93
2022/01/03 02:45:04;;;;;;;21.45;3.33;;;;;;;;;;5099598;28;20492;-92
2022/01/03 02:47:30;;;;;;;18.83;3.22;;;;;;;;;;5099688;28;20040;-93
2022/01/03 02:49:56;;;;;;;19.92;3.17;;;;;;;;;;5097800;28;20119;-93
2022/01/03 02:52:22;;;;;;;19.95;3.90;;;;;;;;;;5099683;28;20040;-93
2022/01/03 02:54:48;;;;;;;20.17;3.78;;;;;;;;;;5099808;28;20040;-94
2022/01/03 02:57:15;;;;;;;20.70;3.47;;;;;;;;;;5098084;28;20044;-92
2022/01/03 02:59:41;;;;;;;22.27;3.75;;;;;;;;;;5099335;28;20495;-93
2022/01/03 03:02:07;;;;;;;21.10;3.78;;;;;;;;;;5097873;28;20048;-92
2022/01/03 03:04:47;;;;;;;27.30;3.95;;;;;;;;;;5099512;28;20150;-94
2022/01/03 03:07:20;;;;;;;18.88;3.53;;;;;;;;;;5099328;28;20048;-92
2022/01/03 03:09:46;;;;;;;20.90;3.25;;;;;;;;;;5101005;28;20039;-92
2022/01/03 03:12:12;;;;;;;21.58;4.30;;;;;;;;;;5098932;28;20185;-92
2022/01/03 03:14:38;;;;;;;17.17;3.42;;;;;;;;;;5099652;28;20032;-93
2022/01/03 03:17:05;;;;;;;21.02;4.13;;;;;;;;;;5098830;28;20601;-92
2022/01/03 03:19:31;;;;;;;18.05;3.47;;;;;;;;;;5100327;28;20474;-95
2022/01/03 03:21:57;;;;;;;17.80;3.33;;;;;;;;;;5098966;28;20040;-93
2022/01/03 03:24:23;;;;;;;21.63;3.60;;;;;;;;;;5098174;28;20066;-93
2022/01/03 03:26:49;;;;;;;24.00;3.95;;;;;;;;;;5099067;28;20096;-93
2022/01/03 03:29:15;;;;;;;20.15;3.97;;;;;;;;;;5097993;28;20119;-93
2022/01/03 03:31:41;;;;;;;23.08;3.65;;;;;;;;;;5098848;28;20040;-93
2022/01/03 03:34:07;;;;;;;23.17;3.65;;;;;;;;;;5097402;28;20055;-93
2022/01/03 03:36:33;;;;;;;21.98;3.42;;;;;;;;;;5099464;28;20429;-92
2022/01/03 03:38:59;;;;;;;20.45;3.10;;;;;;;;;;5098380;28;20051;-92
2022/01/03 03:41:26;;;;;;;24.58;3.85;;;;;;;;;;5098026;28;20051;-92
2022/01/03 03:43:52;;;;;;;24.02;4.63;;;;;;;;;;5099051;28;20531;-94
2022/01/03 03:46:18;;;;;;;27.33;4.25;;;;;;;;;;5097980;28;20047;-92
2022/01/03 03:48:44;;;;;;;19.85;3.67;;;;;;;;;;5098137;28;20377;-93
2022/01/03 03:51:10;;;;;;;23.52;3.97;;;;;;;;;;5098692;28;20047;-92
2022/01/03 03:53:36;;;;;;;20.00;3.45;;;;;;;;;;5097957;28;20044;-93
2022/01/03 03:56:02;;;;;;;21.30;4.03;;;;;;;;;;5099340;28;20040;-92
2022/01/03 03:58:28;;;;;;;22.23;3.78;;;;;;;;;;5098623;28;20040;-93
2022/01/03 04:00:54;;;;;;;29.60;4.53;;;;;;;;;;5099596;28;20092;-92
2022/01/03 04:03:20;;;;;;;24.88;3.92;;;;;;;;;;5096627;28;20044;-93
2022/01/03 04:05:46;;;;;;;18.63;3.47;;;;;;;;;;5097434;28;20146;-93
2022/01/03 04:08:12;;;;;;;23.35;3.42;;;;;;;;;;5098664;28;20036;-92
2022/01/03 04:10:38;;;;;;;21.55;4.07;;;;;;;;;;5098750;28;20044;-93
2022/01/03 04:13:04;;;;;;;20.20;2.92;;;;;;;;;;5096447;28;20409;-91
2022/01/03 04:15:30;;;;;;;30.02;4.03;;;;;;;;;;5098110;28;20093;-92
2022/01/03 04:17:56;;;;;;;15.95;3.67;;;;;;;;;;5098851;28;20036;-92
2022/01/03 04:20:22;;;;;;;23.73;3.53;;;;;;;;;;5098308;28;20064;-93
2022/01/03 04:22:48;;;;;;;25.88;3.72;;;;;;;;;;5098701;28;20036;-92
2022/01/03 04:25:15;;;;;;;23.75;3.70;;;;;;;;;;5096990;28;20108;-92
2022/01/03 04:27:41;;;;;;;21.20;3.75;;;;;;;;;;5096755;28;20055;-92
2022/01/03 04:30:07;;;;;;;30.95;4.95;;;;;;;;;;5097577;28;20040;-92
2022/01/03 04:32:33;;;;;;;26.42;4.47;;;;;;;;;;5097158;28;20040;-92
2022/01/03 04:34:59;;;;;;;26.70;4.15;;;;;;;;;;5098687;28;20044;-91
2022/01/03 04:37:25;;;;;;;22.35;4.20;;;;;;;;;;5096574;28;20040;-92
2022/01/03 04:39:51;;;;;;;23.77;4.00;;;;;;;;;;5096196;28;20051;-91
2022/01/03 04:42:17;;;;;;;18.98;3.22;;;;;;;;;;5095747;28;20044;-93
2022/01/03 04:44:43;;;;;;;29.90;4.68;;;;;;;;;;5095736;28;20490;-91
2022/01/03 04:47:09;;;;;;;20.15;3.45;;;;;;;;;;5097727;28;20059;-92
2022/01/03 04:49:35;;;;;;;24.02;4.30;;;;;;;;;;5096899;28;20040;-92
2022/01/03 04:52:02;;;;;;;20.55;3.58;;;;;;;;;;5095784;28;20040;-93
2022/01/03 04:54:28;;;;;;;17.40;3.83;;;;;;;;;;5096043;28;20479;-92
2022/01/03 04:56:59;;;;;;;25.00;4.28;;;;;;;;;;5099112;28;20047;-93
2022/01/03 04:59:25;;;;;;;21.55;3.90;;;;;;;;;;5094311;28;20079;-93
2022/01/03 05:01:51;;;;;;;26.33;3.97;;;;;;;;;;5096388;28;20044;-94
2022/01/03 05:04:17;;;;;;;25.90;4.63;;;;;;;;;;5096274;28;20074;-93
2022/01/03 05:06:43;;;;;;;25.45;4.53;;;;;;;;;;5096596;28;20101;-92
2022/01/03 05:09:09;;;;;;;23.27;3.88;;;;;;;;;;5096163;28;20173;-91
2022/01/03 05:11:35;;;;;;;25.15;4.45;;;;;;;;;;5097060;28;20051;-91
2022/01/03 05:14:00;;;;;;;25.08;4.03;;;;;;;;;;5096091;28;20068;-93
2022/01/03 05:16:26;;;;;;;20.33;4.97;;;;;;;;;;5096674;28;20391;-94
2022/01/03 05:18:52;;;;;;;29.35;4.68;;;;;;;;;;5098022;28;20116;-93
2022/01/03 05:21:20;;;;;;;19.02;3.70;;;;;;;;;;5095776;28;20036;-92
2022/01/03 05:23:47;;;;;;;26.15;4.07;;;;;;;;;;5095250;28;20051;-93
2022/01/03 05:26:14;;;;;;;22.50;4.05;;;;;;;;;;5095376;28;20572;-93
2022/01/03 05:28:40;;;;;;;26.48;4.85;;;;;;;;;;5096204;28;20480;-93
2022/01/03 05:31:08;;;;;;;22.73;4.50;;;;;;;;;;5096555;28;20128;-93
2022/01/03 05:33:34;;;;;;;23.88;4.95;;;;;;;;;;5096060;28;20416;-93
2022/01/03 05:36:00;;;;;;;26.17;5.10;;;;;;;;;;5096153;28;20036;-92
2022/01/03 05:38:26;;;;;;;25.08;4.65;;;;;;;;;;5095847;28;20115;-93
2022/01/03 05:40:52;;;;;;;29.70;5.72;;;;;;;;;;5096032;28;20105;-93
2022/01/03 05:43:18;;;;;;;29.15;4.93;;;;;;;;;;5078315;28;20040;-94
2022/01/03 05:45:44;;;;;;;25.00;5.43;;;;;;;;;;5095197;28;20127;-93
2022/01/03 05:48:10;;;;;;;23.83;4.40;;;;;;;;;;5094744;28;20182;-94
2022/01/03 05:50:36;;;;;;;25.48;4.07;;;;;;;;;;5094964;28;20050;-92
2022/01/03 05:53:02;;;;;;;26.63;5.05;;;;;;;;;;5096144;28;20047;-94
2022/01/03 05:55:28;;;;;;;25.27;4.60;;;;;;;;;;5095453;28;20111;-93
2022/01/03 05:57:55;;;;;;;24.70;4.82;;;;;;;;;;5095172;28;20044;-93
2022/01/03 06:00:23;;;;;;;23.85;5.20;;;;;;;;;;5094695;28;20078;-94
2022/01/03 06:02:54;;;;;;;31.55;4.47;;;;;;;;;;5095737;28;20047;-92
2022/01/03 06:05:38;;;;;;;26.08;5.07;;;;;;;;;;5095984;28;20076;-92
2022/01/03 06:08:05;;;;;;;33.13;4.63;;;;;;;;;;5095208;28;20097;-92
2022/01/03 06:10:31;;;;;;;37.20;5.00;;;;;;;;;;5093797;28;20044;-93
2022/01/03 06:12:57;;;;;;;28.08;4.90;;;;;;;;;;5094441;28;20058;-94
2022/01/03 06:15:24;;;;;;;28.13;5.30;;;;;;;;;;5095006;28;20483;-93
2022/01/03 06:17:51;;;;;;;27.92;5.00;;;;;;;;;;5094276;28;20040;-92
2022/01/03 06:20:17;;;;;;;26.65;4.55;;;;;;;;;;5091529;28;20043;-92
2022/01/03 06:22:43;;;;;;;34.42;5.40;;;;;;;;;;5084517;28;20056;-92
2022/01/03 06:25:10;;;;;;;27.67;4.32;;;;;;;;;;5078982;28;20060;-92
2022/01/03 06:27:37;;;;;;;26.83;5.40;;;;;;;;;;5065364;28;20048;-94
2022/01/03 06:30:04;;;;;;;32.65;5.47;;;;;;;;;;5061112;28;20048;-92
2022/01/03 06:32:30;;;;;;;35.28;4.70;;;;;;;;;;5085282;28;20068;-93
2022/01/03 06:34:56;;;;;;;27.83;4.63;;;;;;;;;;5080309;28;20078;-92
2022/01/03 06:37:22;;;;;;;34.00;5.70;;;;;;;;;;5084026;28;20050;-94
2022/01/03 06:39:48;;;;;;;29.90;5.15;;;;;;;;;;5078610;28;20044;-93
2022/01/03 06:42:14;;;;;;;24.77;5.03;;;;;;;;;;5082204;28;20055;-92
2022/01/03 06:44:40;;;;;;;27.45;5.32;;;;;;;;;;5078324;28;20063;-94
2022/01/03 06:47:06;;;;;;;32.70;5.10;;;;;;;;;;5075416;28;20105;-94
2022/01/03 06:49:32;;;;;;;34.60;5.63;;;;;;;;;;5085669;28;20044;-93
2022/01/03 06:51:58;;;;;;;28.05;4.30;;;;;;;;;;5078992;28;20048;-93
2022/01/03 06:54:25;;;;;;;31.27;4.60;;;;;;;;;;5074059;28;20434;-92
2022/01/03 06:56:51;;;;;;;31.48;5.25;;;;;;;;;;5082920;28;20056;-93
2022/01/03 06:59:17;;;;;;;23.35;4.63;;;;;;;;;;5075776;28;20131;-92
2022/01/03 07:01:43;;;;;;;28.33;4.40;;;;;;;;;;5083894;28;20052;-95
2022/01/03 07:04:09;;;;;;;26.50;5.30;;;;;;;;;;5079110;28;20089;-92
2022/01/03 07:06:36;;;;;;;24.08;5.78;;;;;;;;;;5078387;28;20087;-93
2022/01/03 07:09:05;;;;;;;30.08;6.65;;;;;;;;;;5078714;28;20126;-92
2022/01/03 07:11:31;;;;;;;29.17;4.78;;;;;;;;;;5082426;28;20040;-93
2022/01/03 07:18:55;;;;;;;24.63;4.55;;;;;;;;;;5079461;28;20058;-92
2022/01/03 07:19:27;;;;;;;25.63;4.55;;;;;;;;;;5077950;28;20123;-92
2022/01/03 07:21:53;;;;;;;36.83;5.75;;;;;;;;;;5079620;28;20119;-93
2022/01/03 07:24:19;;;;;;;27.77;4.70;;;;;;;;;;5077734;28;20534;-91
2022/01/03 07:26:45;;;;;;;27.88;5.15;;;;;;;;;;5085902;28;20067;-91
2022/01/03 07:29:11;;;;;;;21.20;4.53;;;;;;;;;;5084994;28;20491;-92
2022/01/03 07:31:37;;;;;;;29.38;4.57;;;;;;;;;;5086558;28;20119;-90
2022/01/03 07:34:03;;;;;;;29.73;4.97;;;;;;;;;;5078180;28;20527;-92
2022/01/03 07:36:30;;;;;;;25.88;4.63;;;;;;;;;;5080067;28;20130;-93
2022/01/03 07:38:56;;;;;;;25.48;4.40;;;;;;;;;;5086109;28;20139;-92
2022/01/03 07:41:22;;;;;;;28.48;6.05;;;;;;;;;;5079610;28;20114;-92
2022/01/03 07:43:48;;;;;;;25.63;5.65;;;;;;;;;;5082954;28;20044;-93
2022/01/03 07:46:14;;;;;;;32.13;5.22;;;;;;;;;;5083390;28;20055;-91
2022/01/03 07:48:40;;;;;;;33.63;4.60;;;;;;;;;;5083022;28;20111;-91
2022/01/03 07:51:06;;;;;;;28.83;5.07;;;;;;;;;;5081023;28;20094;-91
2022/01/03 07:53:32;;;;;;;23.13;4.55;;;;;;;;;;5079171;28;20127;-91
2022/01/03 07:55:58;;;;;;;29.35;5.65;;;;;;;;;;5080676;28;20483;-91
2022/01/03 07:58:24;;;;;;;30.65;5.50;;;;;;;;;;5082389;28;20131;-91
2022/01/03 08:00:50;;;;;;;27.60;4.57;;;;;;;;;;5080828;28;20051;-91
2022/01/03 08:03:16;;;;;;;25.17;5.50;;;;;;;;;;5076540;28;20045;-92
2022/01/03 08:05:42;;;;;;;23.75;4.30;;;;;;;;;;5083689;28;20059;-90
2022/01/03 08:08:09;;;;;;;26.45;5.30;;;;;;;;;;5084843;28;20043;-91
2022/01/03 08:10:35;;;;;;;25.65;5.55;;;;;;;;;;5084711;28;20047;-92
2022/01/03 08:13:01;;;;;;;26.05;4.38;;;;;;;;;;5082499;28;20124;-91
2022/01/03 08:15:27;;;;;;;29.17;6.57;;;;;;;;;;5091686;28;20075;-90
2022/01/03 08:17:53;;;;;;;25.42;4.28;;;;;;;;;;5095694;28;20043;-89
2022/01/03 08:20:20;;;;;;;31.13;6.10;;;;;;;;;;5094290;28;20036;-90
2022/01/03 08:22:46;;;;;;;23.55;4.18;;;;;;;;;;5086558;28;20068;-93
2022/01/03 08:25:12;;;;;;;30.65;5.05;;;;;;;;;;5073847;28;20075;-91
2022/01/03 08:27:38;;;;;;;26.10;4.35;;;;;;;;;;5073578;28;20125;-90
2022/01/03 08:30:05;;;;;;;28.02;4.85;;;;;;;;;;5073943;28;20079;-91
2022/01/03 08:32:31;;;;;;;28.98;4.50;;;;;;;;;;5075027;28;20047;-90
2022/01/03 08:34:57;;;;;;;28.55;4.80;;;;;;;;;;5073710;28;20037;-92
2022/01/03 08:37:23;;;;;;;26.75;5.10;;;;;;;;;;5074730;28;20044;-91
2022/01/03 08:39:49;;;;;;;27.42;4.88;;;;;;;;;;5074773;28;20041;-91
2022/01/03 08:42:15;;;;;;;26.85;4.80;;;;;;;;;;5074885;28;20111;-90
2022/01/03 08:44:41;;;;;;;25.88;4.20;;;;;;;;;;5073832;28;20044;-91
2022/01/03 08:47:07;;;;;;;27.20;5.25;;;;;;;;;;5074602;28;20488;-93
2022/01/03 08:49:33;;;;;;;26.40;4.80;;;;;;;;;;5073368;28;20052;-92
2022/01/03 08:52:00;;;;;;;19.73;4.28;;;;;;;;;;5074448;28;20042;-91
2022/01/03 08:54:26;;;;;;;34.55;6.70;;;;;;;;;;5073421;28;20087;-92
2022/01/03 08:56:52;;;;;;;27.35;5.68;;;;;;;;;;5074277;28;20399;-90
2022/01/03 08:59:17;;;;;;;28.75;5.10;;;;;;;;;;5073537;28;20074;-92
2022/01/03 09:01:43;;;;;;;34.60;4.70;;;;;;;;;;5073340;28;20115;-91
2022/01/03 09:04:09;;;;;;;27.60;4.68;;;;;;;;;;5074524;28;20053;-91
2022/01/03 09:06:35;;;;;;;27.33;4.93;;;;;;;;;;5073510;28;20372;-90
2022/01/03 09:09:02;;;;;;;22.33;5.00;;;;;;;;;;5074544;28;20048;-90
2022/01/03 09:11:28;;;;;;;26.48;4.35;;;;;;;;;;5073083;28;20040;-93
2022/01/03 09:13:54;;;;;;;23.52;4.22;;;;;;;;;;5073169;28;20040;-92
2022/01/03 09:16:20;;;;;;;22.55;3.90;;;;;;;;;;5073446;28;20120;-92
2022/01/03 09:18:46;;;;;;;21.25;4.47;;;;;;;;;;5074377;28;20055;-93
2022/01/03 09:21:12;;;;;;;33.65;4.45;;;;;;;;;;5074934;28;20067;-92
2022/01/03 09:23:43;;;;;;;26.63;4.38;;;;;;;;;;5074664;28;20418;-94
2022/01/03 09:28:56;;;;;;;22.52;4.00;;;;;;;;;;5075973;28;20048;-93
2022/01/03 09:31:29;;;;;;;25.48;4.85;;;;;;;;;;5075804;28;20075;-93
2022/01/03 09:33:57;;;;;;;23.50;4.65;;;;;;;;;;5074870;28;20048;-93
2022/01/03 09:36:24;;;;;;;27.20;4.28;;;;;;;;;;5074838;28;20279;-93
2022/01/03 09:38:50;;;;;;;26.45;4.38;;;;;;;;;;5074432;28;20083;-92
2022/01/03 09:41:20;;;;;;;24.13;4.13;;;;;;;;;;5074418;28;20079;-91
2022/01/03 09:43:47;;;;;;;27.73;4.20;;;;;;;;;;5075186;28;20060;-91
2022/01/03 09:46:14;;;;;;;26.70;4.57;;;;;;;;;;5073542;28;20415;-92
2022/01/03 09:48:44;;;;;;;24.30;4.45;;;;;;;;;;5075208;28;20045;-92
2022/01/03 09:51:11;;;;;;;23.85;4.35;;;;;;;;;;5058335;28;20040;-92
2022/01/03 09:53:39;;;;;;;23.00;4.25;;;;;;;;;;5056838;28;20041;-92
2022/01/03 09:56:06;;;;;;;24.75;4.13;;;;;;;;;;5073828;28;20066;-92
2022/01/03 09:58:32;;;;;;;27.70;5.18;;;;;;;;;;5072508;28;20533;-91
2022/01/03 10:01:00;;;;;;;27.02;4.53;;;;;;;;;;5073751;28;20040;-91
2022/01/03 10:03:26;;;;;;;22.88;4.63;;;;;;;;;;5073576;28;20356;-91
2022/01/03 10:05:52;;;;;;;33.15;4.93;;;;;;;;;;5072815;28;20377;-91
2022/01/03 10:08:17;;;;;;;24.52;4.20;;;;;;;;;;5073468;28;20047;-92
2022/01/03 10:10:44;;;;;;;19.58;3.92;;;;;;;;;;5073732;28;20040;-91
2022/01/03 10:13:14;;;;;;;25.83;4.43;;;;;;;;;;5072113;28;20051;-87
2022/01/03 10:15:40;;;;;;;28.33;4.82;;;;;;;;;;5073438;28;20045;-92
2022/01/03 10:18:06;;;;;;;24.90;4.03;;;;;;;;;;5071749;28;20044;-91
2022/01/03 10:20:39;;;;;;;31.77;5.88;;;;;;;;;;5071984;28;20055;-91
2022/01/03 10:23:10;;;;;;;25.48;4.13;;;;;;;;;;5073295;28;20128;-91
2022/01/03 10:25:36;;;;;;;23.27;5.47;;;;;;;;;;5072880;28;20056;-93
2022/01/03 10:28:06;;;;;;;28.15;5.07;;;;;;;;;;5073407;28;20041;-93
2022/01/03 10:30:33;;;;;;;26.35;4.10;;;;;;;;;;5072023;28;20040;-92
2022/01/03 10:32:59;;;;;;;22.98;4.95;;;;;;;;;;5072130;28;20045;-94
2022/01/03 10:35:25;;;;;;;24.15;3.97;;;;;;;;;;5073602;28;20044;-93
2022/01/03 10:37:51;;;;;;;24.27;4.40;;;;;;;;;;5073397;28;20059;-93
2022/01/03 10:40:17;;;;;;;22.60;4.15;;;;;;;;;;5071991;28;20404;-91
2022/01/03 10:42:43;;;;;;;22.52;4.40;;;;;;;;;;5071754;28;20068;-91
2022/01/03 10:45:10;;;;;;;24.25;4.90;;;;;;;;;;5072024;28;20041;-93
2022/01/03 10:47:37;;;;;;;21.58;3.67;;;;;;;;;;5072024;28;20052;-91
2022/01/03 10:50:19;;;;;;;24.08;4.45;;;;;;;;;;5072085;28;20045;-92
2022/01/03 10:52:47;;;;;;;25.85;4.38;;;;;;;;;;5072195;28;20112;-89
2022/01/03 10:55:16;;;;;;;23.55;3.72;;;;;;;;;;5071857;28;20048;-91
2022/01/03 10:57:59;;;;;;;25.02;4.78;;;;;;;;;;5075120;28;20037;-92
2022/01/03 11:00:36;;;;;;;25.42;4.38;;;;;;;;;;5076066;28;20048;-91
2022/01/03 11:03:21;;;;;;;26.98;5.00;;;;;;;;;;5075553;28;20040;-92
2022/01/03 11:05:53;;;;;;;28.73;3.90;;;;;;;;;;5082024;28;20373;-92
2022/01/03 11:11:05;;;;;;;;;;;;;;;;;;5082717;28;20072;-92
2022/01/03 11:13:33;;;;;;;25.13;4.70;;;;;;;;;;5076974;28;19917;-90
2022/01/03 11:16:06;;;;;;;28.90;4.82;;;;;;;;;;5076930;28;20048;-90
2022/01/03 11:18:39;;;;;;;28.23;4.95;;;;;;;;;;5075603;28;20048;-92
2022/01/03 11:21:11;;;;;;;23.33;4.88;;;;;;;;;;5075232;28;20044;-92
2022/01/03 11:23:37;;;;;;;19.58;4.78;;;;;;;;;;5075943;28;20523;-91
2022/01/03 11:26:07;;;;;;;25.67;4.60;;;;;;;;;;5075026;28;20066;-92
2022/01/03 11:28:34;;;;;;;20.75;3.95;;;;;;;;;;5075031;28;20059;-92
2022/01/03 11:31:02;;;;;;;22.77;4.28;;;;;;;;;;5075210;28;20091;-92
2022/01/03 11:33:28;;;;;;;25.60;4.10;;;;;;;;;;5075546;28;20065;-91
2022/01/03 11:35:56;;;;;;;23.52;4.53;;;;;;;;;;5074647;28;20052;-91
2022/01/03 11:38:22;;;;;;;19.98;3.83;;;;;;;;;;5075542;28;20036;-91
2022/01/03 11:40:49;;;;;;;20.75;4.75;;;;;;;;;;5074803;28;20448;-92
2022/01/03 11:43:15;;;;;;;26.20;4.57;;;;;;;;;;5074621;28;20387;-91
2022/01/03 11:45:41;;;;;;;23.70;4.38;;;;;;;;;;5076005;28;20043;-91
2022/01/03 11:48:08;;;;;;;21.42;4.53;;;;;;;;;;5076714;28;20043;-93
2022/01/03 11:50:36;;;;;;;27.13;4.38;;;;;;;;;;5074911;28;20036;-92
2022/01/03 11:53:03;;;;;;;23.20;3.70;;;;;;;;;;5075674;28;20506;-90
2022/01/03 11:55:29;;;;;;;22.13;4.57;;;;;;;;;;5076290;28;20039;-92
2022/01/03 11:58:27;;;;;;;22.75;4.13;;;;;;;;;;5074580;28;20028;-92
2022/01/03 12:03:50;;;;;;;19.58;4.38;;;;;;;;;;5076479;28;20047;-93
2022/01/03 12:06:23;;;;;;;23.08;4.78;;;;;;;;;;5074521;28;20048;-92
2022/01/03 12:08:54;;;;;;;20.85;4.03;;;;;;;;;;5074978;28;20044;-90
2022/01/03 12:11:22;;;;;;;24.17;4.78;;;;;;;;;;5074402;28;20033;-91
2022/01/03 12:13:58;;;;;;;20.98;3.92;;;;;;;;;;5075309;28;20041;-91
2022/01/03 12:16:45;;;;;;;21.95;4.78;;;;;;;;;;5075359;28;20041;-91
2022/01/03 12:19:13;;;;;;;21.15;3.70;;;;;;;;;;5075180;28;20098;-92
2022/01/03 12:21:52;;;;;;;24.23;3.80;;;;;;;;;;5074362;28;20509;-91
2022/01/03 12:24:28;;;;;;;23.77;4.95;;;;;;;;;;5075147;28;20450;-92
2022/01/03 12:27:20;;;;;;;18.98;3.97;;;;;;;;;;5057888;28;20072;-91
2022/01/03 12:29:55;;;;;;;23.58;4.25;;;;;;;;;;5073992;28;20133;-91
2022/01/03 12:32:22;;;;;;;20.17;3.30;;;;;;;;;;5073943;28;20065;-92
2022/01/03 12:35:06;;;;;;;17.67;3.78;;;;;;;;;;5074724;28;20045;-92
2022/01/03 12:37:33;;;;;;;18.92;3.80;;;;;;;;;;5073959;28;20033;-92
2022/01/03 12:40:04;;;;;;;22.33;3.90;;;;;;;;;;5075031;28;20078;-90
2022/01/03 12:42:49;;;;;;;20.23;4.38;;;;;;;;;;5075098;28;20052;-92
2022/01/03 12:45:33;;;;;;;21.00;4.50;;;;;;;;;;5074942;28;20047;-91
2022/01/03 12:48:11;;;;;;;25.25;4.25;;;;;;;;;;5073628;28;20055;-90
2022/01/03 12:50:45;;;;;;;31.88;4.55;;;;;;;;;;5072891;28;20045;-86
2022/01/03 12:53:13;;;;;;;21.70;3.58;;;;;;;;;;5072914;28;20051;-86
2022/01/03 12:55:41;;;;;;;24.50;3.95;;;;;;;;;;5073074;28;20488;-85
2022/01/03 12:58:07;;;;;;;23.42;4.70;;;;;;;;;;5072574;28;20097;-84
2022/01/03 13:00:40;;;;;;;23.95;4.13;;;;;;;;;;5072753;28;20127;-85
2022/01/03 13:03:21;;;;;;;22.30;4.25;;;;;;;;;;5073908;28;20072;-86
2022/01/03 13:06:09;;;;;;;22.40;4.18;;;;;;;;;;5074027;28;20446;-85
2022/01/03 13:08:36;;;;;;;25.10;4.55;;;;;;;;;;5072336;28;20044;-85
2022/01/03 13:11:06;;;;;;;22.58;4.00;;;;;;;;;;5072621;28;20040;-86
2022/01/03 13:13:32;;;;;;;25.05;4.65;;;;;;;;;;5073794;28;20036;-85
2022/01/03 13:15:58;;;;;;;23.95;4.68;;;;;;;;;;5072671;28;20051;-85
2022/01/03 13:18:24;;;;;;;32.28;4.53;;;;;;;;;;5072455;28;20173;-85
2022/01/03 13:20:56;;;;;;;26.02;4.47;;;;;;;;;;5071900;28;20040;-85
2022/01/03 13:23:25;;;;;;;17.50;4.20;;;;;;;;;;5073467;28;20036;-85
2022/01/03 13:26:03;;;;;;;20.92;4.38;;;;;;;;;;5072150;28;20060;-86
2022/01/03 13:28:29;;;;;;;20.10;4.00;;;;;;;;;;5073223;28;20101;-86
2022/01/03 13:30:59;;;;;;;26.50;4.78;;;;;;;;;;5073736;28;20111;-85
2022/01/03 13:33:25;;;;;;;23.50;4.10;;;;;;;;;;5072145;28;20451;-85
2022/01/03 13:36:04;;;;;;;27.58;4.95;;;;;;;;;;5072362;28;20072;-86
2022/01/03 13:38:31;;;;;;;21.23;3.75;;;;;;;;;;5072276;28;20472;-85
2022/01/03 13:41:32;;;;;;;22.23;3.88;;;;;;;;;;5072250;28;20181;-86
2022/01/03 13:43:59;;;;;;;23.00;4.43;;;;;;;;;;5061631;28;20399;-85
2022/01/03 13:49:11;;;;;;;26.30;4.63;;;;;;;;;;5072974;28;20053;-85
2022/01/03 13:51:38;;;;;;;22.92;4.88;;;;;;;;;;5071842;28;20040;-85
2022/01/03 13:54:04;;;;;;;30.20;4.90;;;;;;;;;;5071668;28;20040;-85
2022/01/03 13:56:41;;;;;;;23.30;5.00;;;;;;;;;;5071765;28;20040;-85
2022/01/03 13:59:07;;;;;;;27.80;5.70;;;;;;;;;;5071784;28;20074;-85
2022/01/03 14:01:33;;;;;;;25.90;4.50;;;;;;;;;;5073198;28;20181;-85
2022/01/03 14:03:59;;;;;;;26.17;3.70;;;;;;;;;;5054924;28;20120;-85
2022/01/03 14:06:25;;;;;;;25.08;4.38;;;;;;;;;;5071640;28;20041;-86
2022/01/03 14:08:53;;;;;;;21.20;5.25;;;;;;;;;;5072845;28;20050;-86
2022/01/03 14:11:20;;;;;;;21.30;5.10;;;;;;;;;;5071930;28;20036;-85
2022/01/03 14:13:46;;;;;;;21.52;4.07;;;;;;;;;;5071379;28;20052;-86
2022/01/03 14:16:13;;;;;;;24.80;4.25;;;;;;;;;;5071764;28;20101;-85
2022/01/03 14:18:41;;;;;;;26.13;4.78;;;;;;;;;;5071587;28;20491;-86
2022/01/03 14:21:14;;;;;;;22.35;4.43;;;;;;;;;;5072812;28;20123;-87
2022/01/03 14:23:41;;;;;;;27.58;4.97;;;;;;;;;;5071610;28;20475;-86
2022/01/03 14:26:21;;;;;;;19.45;4.10;;;;;;;;;;5071046;28;20484;-85
2022/01/03 14:28:47;;;;;;;20.63;4.50;;;;;;;;;;5072700;28;20090;-87
2022/01/03 14:31:13;;;;;;;25.60;4.43;;;;;;;;;;5073305;28;20408;-85
2022/01/03 14:33:39;;;;;;;24.17;4.75;;;;;;;;;;5077932;28;20040;-86
2022/01/03 14:36:18;;;;;;;24.35;6.00;;;;;;;;;;5079330;28;20033;-86
2022/01/03 14:38:46;;;;;;;22.45;4.38;;;;;;;;;;5079325;28;20480;-86
2022/01/03 14:41:25;;;;;;;23.92;3.78;;;;;;;;;;5077706;28;20492;-85
2022/01/03 14:44:01;;;;;;;21.75;4.55;;;;;;;;;;5077817;28;20044;-87
2022/01/03 14:46:32;;;;;;;20.52;3.53;;;;;;;;;;5078084;28;20490;-86
2022/01/03 14:48:58;;;;;;;23.27;3.60;;;;;;;;;;5077842;28;20049;-85
2022/01/03 14:51:37;;;;;;;22.40;4.22;;;;;;;;;;5078065;28;20388;-86
2022/01/03 14:54:13;;;;;;;30.25;5.43;;;;;;;;;;5079224;28;20036;-85